createdAt,value
2023-05-14T00:00:02.639Z,92.27
2023-05-14T00:01:02.386Z,92.27
2023-05-14T00:02:02.063Z,92.37
2023-05-14T00:03:02.064Z,93.03
2023-05-14T00:04:02.146Z,93.74
2023-05-14T00:05:02.134Z,94.06
2023-05-14T00:06:02.789Z,93.65
2023-05-14T00:07:02.459Z,93.24
2023-05-14T00:08:02.313Z,93.99
2023-05-14T00:09:02.116Z,94.40
2023-05-14T00:10:02.148Z,94.81
2023-05-14T00:11:02.389Z,94.77
2023-05-14T00:12:02.031Z,94.56
2023-05-14T00:13:02.280Z,94.15
2023-05-14T00:14:01.900Z,94.15
2023-05-14T00:15:02.267Z,93.03
2023-05-14T00:16:02.581Z,92.42
2023-05-14T00:17:02.249Z,92.11
2023-05-14T00:18:02.231Z,92.62
2023-05-14T00:19:02.590Z,93.95
2023-05-14T00:20:02.029Z,94.36
2023-05-14T00:21:01.675Z,93.85
2023-05-14T00:22:02.140Z,92.62
2023-05-14T00:23:02.021Z,92.21
2023-05-14T00:24:01.691Z,92.11
2023-05-14T00:25:02.141Z,92.62
2023-05-14T00:26:02.620Z,92.52
2023-05-14T00:27:02.219Z,92.52
2023-05-14T00:28:02.215Z,93.07
2023-05-14T00:29:02.353Z,93.89
2023-05-14T00:30:02.833Z,94.51
2023-05-14T00:31:02.392Z,94.30
2023-05-14T00:32:02.910Z,93.99
2023-05-14T00:33:02.652Z,94.24
2023-05-14T00:34:02.577Z,94.75
2023-05-14T00:35:02.833Z,94.34
2023-05-14T00:36:01.646Z,93.63
2023-05-14T00:37:01.707Z,93.52
2023-05-14T00:38:01.615Z,93.32
2023-05-14T00:39:01.706Z,93.99
2023-05-14T00:40:01.809Z,94.40
2023-05-14T00:41:02.187Z,93.28
2023-05-14T00:42:02.313Z,92.46
2023-05-14T00:43:02.178Z,91.85
2023-05-14T00:44:02.114Z,92.05
2023-05-14T00:45:02.758Z,93.28
2023-05-14T00:46:02.425Z,92.25
2023-05-14T00:47:02.456Z,91.23
2023-05-14T00:48:02.985Z,91.54
2023-05-14T00:49:02.715Z,91.13
2023-05-14T00:50:02.676Z,91.44
2023-05-14T00:51:01.710Z,92.19
2023-05-14T00:52:01.672Z,91.99
2023-05-14T00:53:01.532Z,92.19
2023-05-14T00:54:02.138Z,92.50
2023-05-14T00:55:01.728Z,92.81
2023-05-14T00:56:02.302Z,93.06
2023-05-14T00:57:02.193Z,92.85
2023-05-14T00:58:02.719Z,92.65
2023-05-14T00:59:02.793Z,92.44
2023-05-14T01:00:02.464Z,91.78
2023-05-14T01:01:02.640Z,91.63
2023-05-14T01:02:02.507Z,91.93
2023-05-14T01:03:03.091Z,91.52
2023-05-14T01:04:02.827Z,91.07
2023-05-14T01:05:02.768Z,91.58
2023-05-14T01:06:02.695Z,90.97
2023-05-14T01:07:02.883Z,90.45
2023-05-14T01:08:02.766Z,90.39
2023-05-14T01:09:02.997Z,90.70
2023-05-14T01:10:02.922Z,90.91
2023-05-14T01:11:02.776Z,91.01
2023-05-14T01:12:03.296Z,91.63
2023-05-14T01:13:02.864Z,92.55
2023-05-14T01:14:02.704Z,92.85
2023-05-14T01:15:03.240Z,92.24
2023-05-14T01:16:02.986Z,91.73
2023-05-14T01:17:03.175Z,92.28
2023-05-14T01:18:03.128Z,92.28
2023-05-14T01:19:03.011Z,91.97
2023-05-14T01:20:02.854Z,91.56
2023-05-14T01:21:02.445Z,91.87
2023-05-14T01:22:02.371Z,92.28
2023-05-14T01:23:02.919Z,94.23
2023-05-14T01:24:02.597Z,94.84
2023-05-14T01:25:02.504Z,94.95
2023-05-14T01:26:02.976Z,95.25
2023-05-14T01:27:03.428Z,95.46
2023-05-14T01:28:03.181Z,95.46
2023-05-14T01:29:03.189Z,95.56
2023-05-14T01:30:03.109Z,94.33
2023-05-14T01:31:02.728Z,94.23
2023-05-14T01:32:02.777Z,94.23
2023-05-14T01:33:02.751Z,94.54
2023-05-14T01:34:02.579Z,94.89
2023-05-14T01:35:03.142Z,94.95
2023-05-14T01:36:02.736Z,94.12
2023-05-14T01:37:02.605Z,93.62
2023-05-14T01:38:02.521Z,93.41
2023-05-14T01:39:03.029Z,93.41
2023-05-14T01:40:02.752Z,93.62
2023-05-14T01:41:03.717Z,93.71
2023-05-14T01:42:03.323Z,93.86
2023-05-14T01:43:03.721Z,93.66
2023-05-14T01:44:03.304Z,93.86
2023-05-14T01:45:03.677Z,93.96
2023-05-14T01:46:03.335Z,94.07
2023-05-14T01:47:03.195Z,93.76
2023-05-14T01:48:03.767Z,93.25
2023-05-14T01:49:03.550Z,93.15
2023-05-14T01:50:03.359Z,93.55
2023-05-14T01:51:02.906Z,93.55
2023-05-14T01:52:03.134Z,93.55
2023-05-14T01:53:02.964Z,93.86
2023-05-14T01:54:02.689Z,94.11
2023-05-14T01:55:03.193Z,94.62
2023-05-14T01:56:03.267Z,94.93
2023-05-14T01:57:03.085Z,94.62
2023-05-14T01:58:03.595Z,94.21
2023-05-14T01:59:03.129Z,94.11
2023-05-14T02:00:03.003Z,93.70
2023-05-14T02:01:02.703Z,93.08
2023-05-14T02:02:02.540Z,92.78
2023-05-14T02:03:02.457Z,92.57
2023-05-14T02:04:03.027Z,92.27
2023-05-14T02:05:03.493Z,92.78
2023-05-14T02:06:02.204Z,92.68
2023-05-14T02:07:02.025Z,92.27
2023-05-14T02:08:01.936Z,92.27
2023-05-14T02:09:01.780Z,92.06
2023-05-14T02:10:02.316Z,92.47
2023-05-14T02:11:02.472Z,93.80
2023-05-14T02:12:02.230Z,93.29
2023-05-14T02:13:02.099Z,92.98
2023-05-14T02:14:02.680Z,92.57
2023-05-14T02:15:02.214Z,94.52
2023-05-14T02:16:02.757Z,93.49
2023-05-14T02:17:02.733Z,92.78
2023-05-14T02:18:02.633Z,92.78
2023-05-14T02:19:02.525Z,92.68
2023-05-14T02:20:02.906Z,92.98
2023-05-14T02:21:02.212Z,94.05
2023-05-14T02:22:02.112Z,94.26
2023-05-14T02:23:01.947Z,93.85
2023-05-14T02:24:02.213Z,93.54
2023-05-14T02:25:01.913Z,93.64
2023-05-14T02:26:02.474Z,93.74
2023-05-14T02:27:02.353Z,93.85
2023-05-14T02:28:02.277Z,93.54
2023-05-14T02:29:02.095Z,93.64
2023-05-14T02:30:02.598Z,94.36
2023-05-14T02:31:03.177Z,95.12
2023-05-14T02:32:02.786Z,94.92
2023-05-14T02:33:03.343Z,94.51
2023-05-14T02:34:03.096Z,94.61
2023-05-14T02:35:03.016Z,94.30
2023-05-14T02:36:02.522Z,94.20
2023-05-14T02:37:02.382Z,94.51
2023-05-14T02:38:02.356Z,94.40
2023-05-14T02:39:02.120Z,94.05
2023-05-14T02:40:02.651Z,93.23
2023-05-14T02:41:02.936Z,93.02
2023-05-14T02:42:02.825Z,92.72
2023-05-14T02:43:02.681Z,92.61
2023-05-14T02:44:02.511Z,92.41
2023-05-14T02:45:02.995Z,92.51
2023-05-14T02:46:02.557Z,92.97
2023-05-14T02:47:02.387Z,94.20
2023-05-14T02:48:02.286Z,94.51
2023-05-14T02:49:02.615Z,94.51
2023-05-14T02:50:02.643Z,94.40
2023-05-14T02:51:02.880Z,94.40
2023-05-14T02:52:02.576Z,94.20
2023-05-14T02:53:02.465Z,93.79
2023-05-14T02:54:02.940Z,93.59
2023-05-14T02:55:02.429Z,93.68
2023-05-14T02:56:02.953Z,93.17
2023-05-14T02:57:02.751Z,93.68
2023-05-14T02:58:02.573Z,92.76
2023-05-14T02:59:02.389Z,92.86
2023-05-14T03:00:02.654Z,92.97
2023-05-14T03:01:02.468Z,92.97
2023-05-14T03:02:02.037Z,93.21
2023-05-14T03:03:02.461Z,93.21
2023-05-14T03:04:01.816Z,93.42
2023-05-14T03:05:01.844Z,93.17
2023-05-14T03:06:03.106Z,93.01
2023-05-14T03:07:02.484Z,92.91
2023-05-14T03:08:03.067Z,94.04
2023-05-14T03:09:02.648Z,95.27
2023-05-14T03:10:02.530Z,95.06
2023-05-14T03:11:03.125Z,94.20
2023-05-14T03:12:02.616Z,93.32
2023-05-14T03:13:02.466Z,93.27
2023-05-14T03:14:02.909Z,93.42
2023-05-14T03:15:02.894Z,92.97
2023-05-14T03:16:01.788Z,92.60
2023-05-14T03:17:02.354Z,92.70
2023-05-14T03:18:02.324Z,92.60
2023-05-14T03:19:01.929Z,93.42
2023-05-14T03:20:02.445Z,93.01
2023-05-14T03:21:02.073Z,92.50
2023-05-14T03:22:02.618Z,92.60
2023-05-14T03:23:02.109Z,92.60
2023-05-14T03:24:02.716Z,92.60
2023-05-14T03:25:02.416Z,92.19
2023-05-14T03:26:02.326Z,91.88
2023-05-14T03:27:02.285Z,92.08
2023-05-14T03:28:02.945Z,93.16
2023-05-14T03:29:02.670Z,93.46
2023-05-14T03:30:02.621Z,92.95
2023-05-14T03:31:02.601Z,92.70
2023-05-14T03:32:03.249Z,92.23
2023-05-14T03:33:02.913Z,92.33
2023-05-14T03:34:02.913Z,92.64
2023-05-14T03:35:02.781Z,93.26
2023-05-14T03:36:02.666Z,93.87
2023-05-14T03:37:03.193Z,94.18
2023-05-14T03:38:02.884Z,93.87
2023-05-14T03:39:02.799Z,94.08
2023-05-14T03:40:02.961Z,94.80
2023-05-14T03:41:01.934Z,94.59
2023-05-14T03:42:02.333Z,94.49
2023-05-14T03:43:02.251Z,94.59
2023-05-14T03:44:02.186Z,94.49
2023-05-14T03:45:02.131Z,94.29
2023-05-14T03:46:02.305Z,94.08
2023-05-14T03:47:02.907Z,94.23
2023-05-14T03:48:03.017Z,94.43
2023-05-14T03:49:03.005Z,94.02
2023-05-14T03:50:02.719Z,93.92
2023-05-14T03:51:01.943Z,93.71
2023-05-14T03:52:01.976Z,94.33
2023-05-14T03:53:01.932Z,94.33
2023-05-14T03:54:01.821Z,94.02
2023-05-14T03:55:02.142Z,94.12
2023-05-14T03:56:02.045Z,94.33
2023-05-14T03:57:02.481Z,94.64
2023-05-14T03:58:02.413Z,94.23
2023-05-14T03:59:02.302Z,94.43
2023-05-14T04:00:02.166Z,94.23
2023-05-14T04:01:02.324Z,93.82
2023-05-14T04:02:02.506Z,93.71
2023-05-14T04:03:02.592Z,93.92
2023-05-14T04:04:02.906Z,94.12
2023-05-14T04:05:02.734Z,94.37
2023-05-14T04:06:02.770Z,94.07
2023-05-14T04:07:03.276Z,93.92
2023-05-14T04:08:03.069Z,94.07
2023-05-14T04:09:02.959Z,93.61
2023-05-14T04:10:04.339Z,93.20
2023-05-14T04:11:02.097Z,93.30
2023-05-14T04:12:02.413Z,93.40
2023-05-14T04:13:02.378Z,92.89
2023-05-14T04:14:01.937Z,92.69
2023-05-14T04:15:01.930Z,92.58
2023-05-14T04:16:02.666Z,92.99
2023-05-14T04:17:02.522Z,93.10
2023-05-14T04:18:02.550Z,93.10
2023-05-14T04:19:02.661Z,92.99
2023-05-14T04:20:02.641Z,92.99
2023-05-14T04:21:02.308Z,92.99
2023-05-14T04:22:02.245Z,93.30
2023-05-14T04:23:02.172Z,94.33
2023-05-14T04:24:02.156Z,94.89
2023-05-14T04:25:02.241Z,95.40
2023-05-14T04:26:02.931Z,96.02
2023-05-14T04:27:03.035Z,96.43
2023-05-14T04:28:03.203Z,96.43
2023-05-14T04:29:03.321Z,96.22
2023-05-14T04:30:03.115Z,95.71
2023-05-14T04:31:02.145Z,95.92
2023-05-14T04:32:02.290Z,96.43
2023-05-14T04:33:02.351Z,96.43
2023-05-14T04:34:02.331Z,95.81
2023-05-14T04:35:02.146Z,95.81
2023-05-14T04:36:02.407Z,96.02
2023-05-14T04:37:02.385Z,95.77
2023-05-14T04:38:02.295Z,95.56
2023-05-14T04:39:02.326Z,95.77
2023-05-14T04:40:02.502Z,96.08
2023-05-14T04:41:02.498Z,96.59
2023-05-14T04:42:02.534Z,97.31
2023-05-14T04:43:02.763Z,97.41
2023-05-14T04:44:02.752Z,97.82
2023-05-14T04:45:02.762Z,97.82
2023-05-14T04:46:02.833Z,97.67
2023-05-14T04:47:02.896Z,97.06
2023-05-14T04:48:02.885Z,97.06
2023-05-14T04:49:02.979Z,97.47
2023-05-14T04:50:02.954Z,98.70
2023-05-14T04:51:03.998Z,99.01
2023-05-14T04:52:02.909Z,99.01
2023-05-14T04:53:02.787Z,99.21
2023-05-14T04:54:02.824Z,98.39
2023-05-14T04:55:02.851Z,97.37
2023-05-14T04:56:02.695Z,97.27
2023-05-14T04:57:02.664Z,97.37
2023-05-14T04:58:02.655Z,97.67
2023-05-14T04:59:02.568Z,97.53
2023-05-14T05:00:02.546Z,97.12
2023-05-14T05:01:02.854Z,97.32
2023-05-14T05:02:02.857Z,98.14
2023-05-14T05:03:02.871Z,97.42
2023-05-14T05:04:02.904Z,97.94
2023-05-14T05:05:02.911Z,98.66
2023-05-14T05:06:03.028Z,98.45
2023-05-14T05:07:02.960Z,97.73
2023-05-14T05:08:03.077Z,97.28
2023-05-14T05:09:02.987Z,96.66
2023-05-14T05:10:02.937Z,96.25
2023-05-14T05:11:02.487Z,96.04
2023-05-14T05:12:02.228Z,95.94
2023-05-14T05:13:02.417Z,95.69
2023-05-14T05:14:02.420Z,95.28
2023-05-14T05:15:02.738Z,95.28
2023-05-14T05:16:03.067Z,95.90
2023-05-14T05:17:02.924Z,96.10
2023-05-14T05:18:02.936Z,96.10
2023-05-14T05:19:02.832Z,96.98
2023-05-14T05:20:02.717Z,96.57
2023-05-14T05:21:02.462Z,96.98
2023-05-14T05:22:02.473Z,97.19
2023-05-14T05:23:02.537Z,97.04
2023-05-14T05:24:02.592Z,96.53
2023-05-14T05:25:02.321Z,96.32
2023-05-14T05:26:02.570Z,96.58
2023-05-14T05:27:02.333Z,96.58
2023-05-14T05:28:02.339Z,96.79
2023-05-14T05:29:02.465Z,96.54
2023-05-14T05:30:02.222Z,96.54
2023-05-14T05:31:03.036Z,96.59
2023-05-14T05:32:03.077Z,96.70
2023-05-14T05:33:02.918Z,96.45
2023-05-14T05:34:02.859Z,96.14
2023-05-14T05:35:02.977Z,95.79
2023-05-14T05:36:03.026Z,95.59
2023-05-14T05:37:03.140Z,95.34
2023-05-14T05:38:03.040Z,95.13
2023-05-14T05:39:02.733Z,95.03
2023-05-14T05:40:02.810Z,94.89
2023-05-14T05:41:02.722Z,94.98
2023-05-14T05:42:02.900Z,94.98
2023-05-14T05:43:02.698Z,94.74
2023-05-14T05:44:02.263Z,94.53
2023-05-14T05:45:02.482Z,93.88
2023-05-14T05:46:03.215Z,93.47
2023-05-14T05:47:02.946Z,93.16
2023-05-14T05:48:03.001Z,93.12
2023-05-14T05:49:02.649Z,93.52
2023-05-14T05:50:02.776Z,93.12
2023-05-14T05:51:02.597Z,92.26
2023-05-14T05:52:02.418Z,91.89
2023-05-14T05:53:02.328Z,92.05
2023-05-14T05:54:02.458Z,92.46
2023-05-14T05:55:02.494Z,92.46
2023-05-14T05:56:03.239Z,92.72
2023-05-14T05:57:03.037Z,92.42
2023-05-14T05:58:03.206Z,91.97
2023-05-14T05:59:03.231Z,91.56
2023-05-14T06:00:02.723Z,90.95
2023-05-14T06:01:02.714Z,91.30
2023-05-14T06:02:02.664Z,91.50
2023-05-14T06:03:02.662Z,91.71
2023-05-14T06:04:02.434Z,92.01
2023-05-14T06:05:02.474Z,91.61
2023-05-14T06:06:03.102Z,91.40
2023-05-14T06:07:02.973Z,91.46
2023-05-14T06:08:03.071Z,91.36
2023-05-14T06:09:02.901Z,91.83
2023-05-14T06:10:02.991Z,91.42
2023-05-14T06:11:01.940Z,90.97
2023-05-14T06:12:02.452Z,91.07
2023-05-14T06:13:02.520Z,90.86
2023-05-14T06:14:02.623Z,90.46
2023-05-14T06:15:02.406Z,91.33
2023-05-14T06:16:02.112Z,90.31
2023-05-14T06:17:02.195Z,90.37
2023-05-14T06:18:02.464Z,90.17
2023-05-14T06:19:02.650Z,89.76
2023-05-14T06:20:02.277Z,89.76
2023-05-14T06:21:02.022Z,90.13
2023-05-14T06:22:02.626Z,89.31
2023-05-14T06:23:02.684Z,88.40
2023-05-14T06:24:02.558Z,89.01
2023-05-14T06:25:02.648Z,89.46
2023-05-14T06:26:02.683Z,89.72
2023-05-14T06:27:01.866Z,89.62
2023-05-14T06:28:01.797Z,89.98
2023-05-14T06:29:01.711Z,90.19
2023-05-14T06:30:01.809Z,90.25
2023-05-14T06:31:01.913Z,89.90
2023-05-14T06:32:02.776Z,89.55
2023-05-14T06:33:02.659Z,88.29
2023-05-14T06:34:02.115Z,87.48
2023-05-14T06:35:02.297Z,87.34
2023-05-14T06:36:02.378Z,87.34
2023-05-14T06:37:02.231Z,86.83
2023-05-14T06:38:02.188Z,87.20
2023-05-14T06:39:02.126Z,86.15
2023-05-14T06:40:01.989Z,85.64
2023-05-14T06:41:02.081Z,85.44
2023-05-14T06:42:02.235Z,85.39
2023-05-14T06:43:02.351Z,85.19
2023-05-14T06:44:01.826Z,84.04
2023-05-14T06:45:02.227Z,83.44
2023-05-14T06:46:01.872Z,83.70
2023-05-14T06:47:02.548Z,83.09
2023-05-14T06:48:02.698Z,83.40
2023-05-14T06:49:02.883Z,83.76
2023-05-14T06:50:02.667Z,81.98
2023-05-14T06:51:02.466Z,83.40
2023-05-14T06:52:02.395Z,82.95
2023-05-14T06:53:02.240Z,83.15
2023-05-14T06:54:02.347Z,82.35
2023-05-14T06:55:01.966Z,82.01
2023-05-14T06:56:02.012Z,81.60
2023-05-14T06:57:02.652Z,82.10
2023-05-14T06:58:02.673Z,81.26
2023-05-14T06:59:02.545Z,81.96
2023-05-14T07:00:03.753Z,81.96
2023-05-14T07:01:02.809Z,80.45
2023-05-14T07:02:03.026Z,80.49
2023-05-14T07:03:02.912Z,81.50
2023-05-14T07:04:03.027Z,81.30
2023-05-14T07:05:02.499Z,81.80
2023-05-14T07:06:02.690Z,81.26
2023-05-14T07:07:02.255Z,80.85
2023-05-14T07:08:02.377Z,81.46
2023-05-14T07:09:02.140Z,81.76
2023-05-14T07:10:02.140Z,81.67
2023-05-14T07:11:02.170Z,81.22
2023-05-14T07:12:02.944Z,81.62
2023-05-14T07:13:03.025Z,81.22
2023-05-14T07:14:02.608Z,81.16
2023-05-14T07:15:02.653Z,80.15
2023-05-14T07:16:03.001Z,79.54
2023-05-14T07:17:03.160Z,79.54
2023-05-14T07:18:02.809Z,81.26
2023-05-14T07:19:03.027Z,80.45
2023-05-14T07:20:02.595Z,79.64
2023-05-14T07:21:02.772Z,80.55
2023-05-14T07:22:02.458Z,80.15
2023-05-14T07:23:02.321Z,79.94
2023-05-14T07:24:01.942Z,80.72
2023-05-14T07:25:02.397Z,81.22
2023-05-14T07:26:02.342Z,81.73
2023-05-14T07:27:02.549Z,81.68
2023-05-14T07:28:01.966Z,80.44
2023-05-14T07:29:02.123Z,79.03
2023-05-14T07:30:02.334Z,78.66
2023-05-14T07:31:02.483Z,79.23
2023-05-14T07:32:02.483Z,80.13
2023-05-14T07:33:02.281Z,80.00
2023-05-14T07:34:02.474Z,79.09
2023-05-14T07:35:02.616Z,78.65
2023-05-14T07:36:02.417Z,79.36
2023-05-14T07:37:03.200Z,77.81
2023-05-14T07:38:03.120Z,77.40
2023-05-14T07:39:03.142Z,78.58
2023-05-14T07:40:03.096Z,77.77
2023-05-14T07:41:03.312Z,77.03
2023-05-14T07:42:02.900Z,76.32
2023-05-14T07:43:02.526Z,76.12
2023-05-14T07:44:02.470Z,76.39
2023-05-14T07:45:02.434Z,75.79
2023-05-14T07:46:02.681Z,72.97
2023-05-14T07:47:02.490Z,74.58
2023-05-14T07:48:02.497Z,75.55
2023-05-14T07:49:02.400Z,75.35
2023-05-14T07:50:02.290Z,74.85
2023-05-14T07:51:02.442Z,74.71
2023-05-14T07:52:02.329Z,73.71
2023-05-14T07:53:02.492Z,72.50
2023-05-14T07:54:02.588Z,75.31
2023-05-14T07:55:02.653Z,73.37
2023-05-14T07:56:02.457Z,72.97
2023-05-14T07:57:03.236Z,73.44
2023-05-14T07:58:03.070Z,71.63
2023-05-14T07:59:03.019Z,71.70
2023-05-14T08:00:02.664Z,72.66
2023-05-14T08:01:02.851Z,73.77
2023-05-14T08:02:03.527Z,72.36
2023-05-14T08:03:03.821Z,70.43
2023-05-14T08:04:03.089Z,72.63
2023-05-14T08:05:03.274Z,70.93
2023-05-14T08:06:03.038Z,69.49
2023-05-14T08:07:03.097Z,69.09
2023-05-14T08:08:03.732Z,67.89
2023-05-14T08:09:03.606Z,65.89
2023-05-14T08:10:03.675Z,67.22
2023-05-14T08:11:03.532Z,70.32
2023-05-14T08:12:02.706Z,69.89
2023-05-14T08:13:02.665Z,70.19
2023-05-14T08:14:02.693Z,69.86
2023-05-14T08:15:02.822Z,70.26
2023-05-14T08:16:02.740Z,68.93
2023-05-14T08:17:02.936Z,66.86
2023-05-14T08:18:03.088Z,66.66
2023-05-14T08:19:03.112Z,66.66
2023-05-14T08:20:03.090Z,68.05
2023-05-14T08:21:03.788Z,65.16
2023-05-14T08:22:03.709Z,66.55
2023-05-14T08:23:03.162Z,67.86
2023-05-14T08:24:03.168Z,67.16
2023-05-14T08:25:03.327Z,68.13
2023-05-14T08:26:03.088Z,66.82
2023-05-14T08:27:03.160Z,66.69
2023-05-14T08:28:03.482Z,66.39
2023-05-14T08:29:03.683Z,66.36
2023-05-14T08:30:03.778Z,63.06
2023-05-14T08:31:03.577Z,64.36
2023-05-14T08:32:08.749Z,64.86
2023-05-14T08:33:02.894Z,63.66
2023-05-14T08:34:03.110Z,63.66
2023-05-14T08:35:02.901Z,64.56
2023-05-14T08:36:03.316Z,63.13
2023-05-14T08:37:03.295Z,63.06
2023-05-14T08:38:03.731Z,64.46
2023-05-14T08:39:03.826Z,64.66
2023-05-14T08:40:03.711Z,66.26
2023-05-14T08:41:03.539Z,64.63
2023-05-14T08:42:02.832Z,62.53
2023-05-14T08:43:02.878Z,63.90
2023-05-14T08:44:02.763Z,63.60
2023-05-14T08:45:02.877Z,63.70
2023-05-14T08:46:03.029Z,62.97
2023-05-14T08:47:03.171Z,61.57
2023-05-14T08:48:03.538Z,62.18
2023-05-14T08:49:03.580Z,61.47
2023-05-14T08:50:03.575Z,63.14
2023-05-14T08:51:03.666Z,60.25
2023-05-14T08:52:03.444Z,60.05
2023-05-14T08:53:03.469Z,60.45
2023-05-14T08:54:04.022Z,61.35
2023-05-14T08:55:03.892Z,59.92
2023-05-14T08:56:03.944Z,60.52
2023-05-14T08:57:03.129Z,59.45
2023-05-14T08:58:03.578Z,60.05
2023-05-14T08:59:03.166Z,59.85
2023-05-14T09:00:03.182Z,60.32
2023-05-14T09:01:03.383Z,61.41
2023-05-14T09:02:02.758Z,62.48
2023-05-14T09:03:02.926Z,62.38
2023-05-14T09:04:02.985Z,61.76
2023-05-14T09:05:02.937Z,60.36
2023-05-14T09:06:02.750Z,58.87
2023-05-14T09:07:02.838Z,59.36
2023-05-14T09:08:02.660Z,60.36
2023-05-14T09:09:02.820Z,59.36
2023-05-14T09:10:02.993Z,59.83
2023-05-14T09:11:03.087Z,61.43
2023-05-14T09:12:02.186Z,57.84
2023-05-14T09:13:02.348Z,58.04
2023-05-14T09:14:02.588Z,59.23
2023-05-14T09:15:02.621Z,58.64
2023-05-14T09:16:02.041Z,58.94
2023-05-14T09:17:02.945Z,59.04
2023-05-14T09:18:02.961Z,58.71
2023-05-14T09:19:02.870Z,58.11
2023-05-14T09:20:02.640Z,56.59
2023-05-14T09:21:02.786Z,55.70
2023-05-14T09:22:02.945Z,57.22
2023-05-14T09:23:02.493Z,55.43
2023-05-14T09:24:02.826Z,55.65
2023-05-14T09:25:02.958Z,57.24
2023-05-14T09:26:02.365Z,56.38
2023-05-14T09:27:02.986Z,57.37
2023-05-14T09:28:03.468Z,58.47
2023-05-14T09:29:03.370Z,56.10
2023-05-14T09:30:02.870Z,58.72
2023-05-14T09:31:02.912Z,60.12
2023-05-14T09:32:02.481Z,61.49
2023-05-14T09:33:02.803Z,60.66
2023-05-14T09:34:02.990Z,59.64
2023-05-14T09:35:02.736Z,61.20
2023-05-14T09:36:02.814Z,59.01
2023-05-14T09:37:02.727Z,57.99
2023-05-14T09:38:02.702Z,57.69
2023-05-14T09:39:02.864Z,57.09
2023-05-14T09:40:03.082Z,55.57
2023-05-14T09:41:02.516Z,53.61
2023-05-14T09:42:03.536Z,57.89
2023-05-14T09:43:03.168Z,59.15
2023-05-14T09:44:04.740Z,57.53
2023-05-14T09:45:03.594Z,57.64
2023-05-14T09:46:03.413Z,59.19
2023-05-14T09:47:02.546Z,58.30
2023-05-14T09:48:02.777Z,58.20
2023-05-14T09:49:02.259Z,58.10
2023-05-14T09:50:02.333Z,56.49
2023-05-14T09:51:03.350Z,56.71
2023-05-14T09:52:03.258Z,57.11
2023-05-14T09:53:03.114Z,58.40
2023-05-14T09:54:03.228Z,56.91
2023-05-14T09:55:03.477Z,56.71
2023-05-14T09:56:03.333Z,56.61
2023-05-14T09:57:03.589Z,56.74
2023-05-14T09:58:03.391Z,57.60
2023-05-14T09:59:03.146Z,56.91
2023-05-14T10:00:03.275Z,57.70
2023-05-14T10:01:03.705Z,57.11
2023-05-14T10:02:02.364Z,54.93
2023-05-14T10:03:02.304Z,55.42
2023-05-14T10:04:02.474Z,54.82
2023-05-14T10:05:02.634Z,56.74
2023-05-14T10:06:02.169Z,57.34
2023-05-14T10:07:03.047Z,57.43
2023-05-14T10:08:03.077Z,57.81
2023-05-14T10:09:02.902Z,52.14
2023-05-14T10:10:02.847Z,53.93
2023-05-14T10:11:02.862Z,55.52
2023-05-14T10:12:03.111Z,54.90
2023-05-14T10:13:02.965Z,52.74
2023-05-14T10:14:02.961Z,52.94
2023-05-14T10:15:03.017Z,55.05
2023-05-14T10:16:03.116Z,53.73
2023-05-14T10:17:02.707Z,54.23
2023-05-14T10:18:02.600Z,54.21
2023-05-14T10:19:02.255Z,52.22
2023-05-14T10:20:02.521Z,52.76
2023-05-14T10:21:02.598Z,52.17
2023-05-14T10:22:02.826Z,52.00
2023-05-14T10:23:02.786Z,53.31
2023-05-14T10:24:02.609Z,53.64
2023-05-14T10:25:02.813Z,53.53
2023-05-14T10:26:02.760Z,54.50
2023-05-14T10:27:02.879Z,55.87
2023-05-14T10:28:02.321Z,53.69
2023-05-14T10:29:03.052Z,54.08
2023-05-14T10:30:02.344Z,53.19
2023-05-14T10:31:02.551Z,53.28
2023-05-14T10:32:03.058Z,52.59
2023-05-14T10:33:03.280Z,53.58
2023-05-14T10:34:03.358Z,53.69
2023-05-14T10:35:03.274Z,54.95
2023-05-14T10:36:03.283Z,55.65
2023-05-14T10:37:02.730Z,53.16
2023-05-14T10:38:02.937Z,53.66
2023-05-14T10:39:03.055Z,53.56
2023-05-14T10:40:02.656Z,54.55
2023-05-14T10:41:03.179Z,53.96
2023-05-14T10:42:03.489Z,55.42
2023-05-14T10:43:03.489Z,55.12
2023-05-14T10:44:03.403Z,54.53
2023-05-14T10:45:03.221Z,54.23
2023-05-14T10:46:03.431Z,55.02
2023-05-14T10:47:03.321Z,56.71
2023-05-14T10:48:02.768Z,57.01
2023-05-14T10:49:02.647Z,52.61
2023-05-14T10:50:03.184Z,52.94
2023-05-14T10:51:03.257Z,55.02
2023-05-14T10:52:03.608Z,55.29
2023-05-14T10:53:03.522Z,55.57
2023-05-14T10:54:03.786Z,52.89
2023-05-14T10:55:04.017Z,54.68
2023-05-14T10:56:03.289Z,52.89
2023-05-14T10:57:02.452Z,55.44
2023-05-14T10:58:02.596Z,53.45
2023-05-14T10:59:02.697Z,52.73
2023-05-14T11:00:02.709Z,53.43
2023-05-14T11:01:03.006Z,52.91
2023-05-14T11:02:02.695Z,51.23
2023-05-14T11:03:02.811Z,49.34
2023-05-14T11:04:03.071Z,51.23
2023-05-14T11:05:03.254Z,53.38
2023-05-14T11:06:02.573Z,51.70
2023-05-14T11:07:02.807Z,51.67
2023-05-14T11:08:03.230Z,50.09
2023-05-14T11:09:02.816Z,48.60
2023-05-14T11:10:02.970Z,50.38
2023-05-14T11:11:03.223Z,51.10
2023-05-14T11:12:03.342Z,50.21
2023-05-14T11:13:03.616Z,51.20
2023-05-14T11:14:03.714Z,50.60
2023-05-14T11:15:03.806Z,49.91
2023-05-14T11:16:15.117Z,52.29
2023-05-14T11:17:02.948Z,50.90
2023-05-14T11:18:03.202Z,51.89
2023-05-14T11:19:03.553Z,51.60
2023-05-14T11:20:03.074Z,51.00
2023-05-14T11:21:03.327Z,52.09
2023-05-14T11:22:03.484Z,50.93
2023-05-14T11:23:03.683Z,51.72
2023-05-14T11:24:03.956Z,52.14
2023-05-14T11:25:03.478Z,51.94
2023-05-14T11:26:03.649Z,51.84
2023-05-14T11:27:02.915Z,52.04
2023-05-14T11:28:02.770Z,53.23
2023-05-14T11:29:03.027Z,54.82
2023-05-14T11:30:03.089Z,53.63
2023-05-14T11:31:03.353Z,53.33
2023-05-14T11:32:03.626Z,51.07
2023-05-14T11:33:03.894Z,51.10
2023-05-14T11:34:04.016Z,51.82
2023-05-14T11:35:03.817Z,52.22
2023-05-14T11:36:04.043Z,52.84
2023-05-14T11:37:03.487Z,54.53
2023-05-14T11:38:03.336Z,54.03
2023-05-14T11:39:03.062Z,54.63
2023-05-14T11:40:03.363Z,54.33
2023-05-14T11:41:02.898Z,54.93
2023-05-14T11:42:03.633Z,54.25
2023-05-14T11:43:03.795Z,55.74
2023-05-14T11:44:03.774Z,55.55
2023-05-14T11:45:04.028Z,55.15
2023-05-14T11:46:03.745Z,54.35
2023-05-14T11:47:03.049Z,54.78
2023-05-14T11:48:03.449Z,55.18
2023-05-14T11:49:02.788Z,55.87
2023-05-14T11:50:03.387Z,56.47
2023-05-14T11:51:03.324Z,55.57
2023-05-14T11:52:03.323Z,55.47
2023-05-14T11:53:03.506Z,54.71
2023-05-14T11:54:03.392Z,54.71
2023-05-14T11:55:03.359Z,55.00
2023-05-14T11:56:03.630Z,56.00
2023-05-14T11:57:03.599Z,56.49
2023-05-14T11:58:03.731Z,56.20
2023-05-14T11:59:03.449Z,56.32
2023-05-14T12:00:03.669Z,57.02
2023-05-14T12:01:03.839Z,57.12
2023-05-14T12:02:02.197Z,57.42
2023-05-14T12:03:02.385Z,57.35
2023-05-14T12:04:02.434Z,57.94
2023-05-14T12:05:01.800Z,58.84
2023-05-14T12:06:02.071Z,58.54
2023-05-14T12:07:02.286Z,57.54
2023-05-14T12:08:02.572Z,58.14
2023-05-14T12:09:01.964Z,58.01
2023-05-14T12:10:02.068Z,58.31
2023-05-14T12:11:02.209Z,58.22
2023-05-14T12:12:02.363Z,58.11
2023-05-14T12:13:02.495Z,58.61
2023-05-14T12:14:02.641Z,57.02
2023-05-14T12:15:02.658Z,58.34
2023-05-14T12:16:02.661Z,58.84
2023-05-14T12:17:02.616Z,58.94
2023-05-14T12:18:03.008Z,58.74
2023-05-14T12:19:02.982Z,60.83
2023-05-14T12:20:02.496Z,58.94
2023-05-14T12:21:02.605Z,60.53
2023-05-14T12:22:02.811Z,58.64
2023-05-14T12:23:02.951Z,58.54
2023-05-14T12:24:02.921Z,59.74
2023-05-14T12:25:02.466Z,58.14
2023-05-14T12:26:02.595Z,58.04
2023-05-14T12:27:02.537Z,56.25
2023-05-14T12:28:02.732Z,57.45
2023-05-14T12:29:02.270Z,58.84
2023-05-14T12:30:19.013Z,56.95
2023-05-14T12:31:02.172Z,58.71
2023-05-14T12:32:02.084Z,59.91
2023-05-14T12:33:02.028Z,60.87
2023-05-14T12:34:01.641Z,59.65
2023-05-14T12:35:02.222Z,55.08
2023-05-14T12:36:10.442Z,53.58
2023-05-14T12:37:02.462Z,54.38
2023-05-14T12:38:02.073Z,55.97
2023-05-14T12:39:02.259Z,55.85
2023-05-14T12:40:02.578Z,54.55
2023-05-14T12:41:02.546Z,56.02
2023-05-14T12:42:02.592Z,55.00
2023-05-14T12:43:02.733Z,53.91
2023-05-14T12:44:02.485Z,53.88
2023-05-14T12:45:02.566Z,53.88
2023-05-14T12:46:02.735Z,53.85
2023-05-14T12:47:02.760Z,53.06
2023-05-14T12:48:02.327Z,50.88
2023-05-14T12:49:02.625Z,51.67
2023-05-14T12:50:02.620Z,52.96
2023-05-14T12:51:02.536Z,49.57
2023-05-14T12:52:19.486Z,48.10